WetterOnline ( https://www.wetteronline.de )

Wetter aktuell Cuxhaven

Aktuelles Wetter: Cuxhaven (12m)

6-stündlich | Neueste Meldungen
Ortszeit Temperatur Wetter
Sa, 28.01. 19:00 3.5° C Sprühregen
Sa, 28.01. 13:00 2.0° C bedeckt
Sa, 28.01. 7:00 -1.1° C wolkenlos
Sa, 28.01. 1:00 -0.7° C bedeckt
Fr, 27.01. 19:00 2.2° C bedeckt
Fr, 27.01. 13:00 3.6° C bedeckt
Fr, 27.01. 7:00 3.4° C bedeckt
Fr, 27.01. 1:00 4.6° C bedeckt
Ortszeit Temperatur Wetter
Sa, 28.01. 21:30 3.7° C bewölkt
Sa, 28.01. 21:20 3.7° C bewölkt
Sa, 28.01. 21:10 3.7° C bedeckt
Sa, 28.01. 21:00 3.8° C Sprühregen
Sa, 28.01. 20:50 3.8° C Sprühregen
Sa, 28.01. 20:40 3.8° C bewölkt
Sa, 28.01. 20:30 3.8° C bedeckt
Sa, 28.01. 20:00 3.5° C bewölkt
Sa, 28.01. 19:30 3.5° C bewölkt
Sa, 28.01. 19:00 3.5° C Sprühregen
Sa, 28.01. 18:30 3.7° C bewölkt
Ortszeit Relative Feuchte Sichtweite
Sa, 28.01. 19:00 91% 7 km
Sa, 28.01. 13:00 84% 30 km
Sa, 28.01. 7:00 81% 30 km
Sa, 28.01. 1:00 84% 30 km
Fr, 27.01. 19:00 74% 55 km
Fr, 27.01. 13:00 76% >70 km
Fr, 27.01. 7:00 89% 50 km
Fr, 27.01. 1:00 82% 50 km
Ortszeit Relative Feuchte Sichtweite
Sa, 28.01. 21:30 93% 20 km
Sa, 28.01. 21:20 93% -
Sa, 28.01. 21:10 93% -
Sa, 28.01. 21:00 91% 12 km
Sa, 28.01. 20:50 91% -
Sa, 28.01. 20:40 90% -
Sa, 28.01. 20:30 90% 25 km
Sa, 28.01. 20:00 93% 13 km
Sa, 28.01. 19:30 94% 10 km
Sa, 28.01. 19:00 91% 7 km
Sa, 28.01. 18:30 89% 12 km
Ortszeit Niederschlagsmenge Niederschlagsart
Sa, 28.01. 19:00 0.1 l/m2 in 12 Std. Sprühregen
Sa, 28.01. 13:00 0.0 l/m2 in 6 Std. -
Sa, 28.01. 7:00 0.0 l/m2 in 12 Std. -
Sa, 28.01. 1:00 0.0 l/m2 in 6 Std. -
Fr, 27.01. 19:00 0.1 l/m2 in 12 Std. -
Fr, 27.01. 13:00 0.1 l/m2 in 6 Std. Sprühregen
Fr, 27.01. 7:00 0.1 l/m2 in 12 Std. Sprühregen
Fr, 27.01. 1:00 0.0 l/m2 in 6 Std. -
Ortszeit Niederschlagsmenge Niederschlagsart
Sa, 28.01. 21:30 <0.05 l/m2 in 30 Min Schnee
Sa, 28.01. 21:20 keine Meldung -
Sa, 28.01. 21:10 keine Meldung -
Sa, 28.01. 21:00 <0.05 l/m2 in 1 Std. Sprühregen
Sa, 28.01. 20:50 keine Meldung -
Sa, 28.01. 20:40 keine Meldung -
Sa, 28.01. 20:30 <0.05 l/m2 in 30 Min Schnee
Sa, 28.01. 20:00 <0.05 l/m2 in 1 Std. Sprühregen
Sa, 28.01. 19:30 <0.05 l/m2 in 30 Min Schnee
Sa, 28.01. 19:00 <0.05 l/m2 in 1 Std. Sprühregen
Sa, 28.01. 18:30 <0.05 l/m2 in 30 Min Schnee
Ortszeit Stärke Spitze Richtung
km/h Bft. km/h Grad Sektor
Sa, 28.01. 19:00 18 3 32 240° SW
Sa, 28.01. 13:00 15 3 24 240° SW
Sa, 28.01. 7:00 11 2 18 210° SW
Sa, 28.01. 1:00 6 1 26 160° S
Fr, 27.01. 19:00 14 3 32 60° NO
Fr, 27.01. 13:00 17 3 31 60° NO
Fr, 27.01. 7:00 18 3 43 50° NO
Fr, 27.01. 1:00 26 4 52 50° NO
Ortszeit Stärke Spitze Richtung
km/h Bft. km/h Grad Sektor
Sa, 28.01. 21:30 20 4 33 250° W
Sa, 28.01. 21:20 20 4 - 250° W
Sa, 28.01. 21:10 18 3 - 250° W
Sa, 28.01. 21:00 20 4 33 240° SW
Sa, 28.01. 20:50 20 4 - 240° SW
Sa, 28.01. 20:40 18 3 - 240° SW
Sa, 28.01. 20:30 19 3 31 240° SW
Sa, 28.01. 20:00 17 3 30 240° SW
Sa, 28.01. 19:30 14 3 29 240° SW
Sa, 28.01. 19:00 18 3 32 240° SW
Sa, 28.01. 18:30 14 3 25 250° W
Ortszeit Untergrenze Bedeckung Gattung
total tief tief mittel hoch
Sa, 28.01. 19:00 510 m 7/8 7/8 - - -
Sa, 28.01. 13:00 930 m 8/8 8/8 - - -
Sa, 28.01. 7:00 - 0/8 0/8 - - -
Sa, 28.01. 1:00 4500 m 8/8 8/8 - - -
Fr, 27.01. 19:00 570 m 8/8 8/8 - - -
Fr, 27.01. 13:00 570 m 8/8 8/8 - - -
Fr, 27.01. 7:00 360 m 8/8 8/8 - - -
Fr, 27.01. 1:00 600 m 8/8 8/8 - - -
Ortszeit Bedeckungsgrad in Achtel und Wolkenuntergrenze
Sa, 28.01. 21:30 7(420m) 7(630m) 7(1200m)
Sa, 28.01. 21:20 7(420m) 7(630m) 7(1200m)
Sa, 28.01. 21:10 8
Sa, 28.01. 21:00 8(390m)
Sa, 28.01. 20:50 8(390m)
Sa, 28.01. 20:40 7
Sa, 28.01. 20:30 7(330m) 8(510m)
Sa, 28.01. 20:00 7(300m)
Sa, 28.01. 19:30 6(270m) 7(420m)
Sa, 28.01. 19:00 7(510m)
Sa, 28.01. 18:30 7(570m)
Ortszeit Luftdruck NN (hPa) Tendenz (hPa in 3 Std.)
Sa, 28.01. 19:00 1028 - 0,2
Sa, 28.01. 13:00 1029 - 1,3
Sa, 28.01. 7:00 1029 - 0,9
Sa, 28.01. 1:00 1030 - 0,3
Fr, 27.01. 19:00 1030 + 0,9
Fr, 27.01. 13:00 1029 0,0
Fr, 27.01. 7:00 1028 + 1,0
Fr, 27.01. 1:00 1026 + 0,7
Ortszeit Luftdruck NN (hPa) Tendenz (hPa in 3 Std.)
Sa, 28.01. 21:30 1027 - 0,5
Sa, 28.01. 21:20 1027 keine Meldung
Sa, 28.01. 21:10 1027 keine Meldung
Sa, 28.01. 21:00 1027 - 0,2
Sa, 28.01. 20:50 1027 keine Meldung
Sa, 28.01. 20:40 1028 keine Meldung
Sa, 28.01. 20:30 1028 - 0,1
Sa, 28.01. 20:00 1028 + 0,1
Sa, 28.01. 19:30 1028 + 0,4
Sa, 28.01. 19:00 1028 - 0,2
Sa, 28.01. 18:30 1028 - 0,2
Ortszeit Schneehöhe (cm)
Sa, 28.01. 19:00 0
Sa, 28.01. 13:00 0
Sa, 28.01. 7:00 0
Sa, 28.01. 1:00 0
Fr, 27.01. 19:00 0
Fr, 27.01. 13:00 0
Fr, 27.01. 7:00 0
Fr, 27.01. 1:00 0
Ortszeit Schneehöhe (cm)
Sa, 28.01. 21:30 0
Sa, 28.01. 21:20 0
Sa, 28.01. 21:10 0
Sa, 28.01. 21:00 0
Sa, 28.01. 20:50 0
Sa, 28.01. 20:40 0
Sa, 28.01. 20:30 0
Sa, 28.01. 20:00 0
Sa, 28.01. 19:30 0
Sa, 28.01. 19:00 0
Sa, 28.01. 18:30 0
Link zu dieser Seite / Seite empfehlen

Das Wetter in ...